Time;durP1;ratioP1;P1;durP2;ratioP2;P2;SDS_P1;SDS_P2;PMS_P1;PMS_P2;Temp;Humidity;BMP_temperature;BMP_pressure;BME280_temperature;BME280_humidity;BME280_pressure;Samples;Min_cycle;Max_cycle;Signal;HPM_P1;HPM_P2
2022/05/16 00:00:17;;;;;;;8.25;2.35;;;;;;;11.29;100.00;100774.14;1645079;87;21484;-86
2022/05/16 00:02:44;;;;;;;7.95;2.15;;;;;;;11.21;100.00;100770.06;1584480;89;21036;-87
2022/05/16 00:05:11;;;;;;;8.40;2.62;;;;;;;11.16;100.00;100772.71;1583989;90;21036;-86
2022/05/16 00:07:37;;;;;;;12.37;2.70;;;;;;;11.12;100.00;100775.66;1512726;94;21186;-87
2022/05/16 00:10:05;;;;;;;9.55;3.15;;;;;;;11.09;100.00;100772.14;1512754;94;21118;-86
2022/05/16 00:12:32;;;;;;;12.35;2.77;;;;;;;11.06;100.00;100771.27;1512783;94;21068;-86
2022/05/16 00:14:58;;;;;;;13.20;2.72;;;;;;;11.04;100.00;100773.44;1512779;94;21162;-87
2022/05/16 00:17:24;;;;;;;10.70;3.33;;;;;;;11.00;100.00;100771.80;1512807;94;21113;-86
2022/05/16 00:19:50;;;;;;;11.95;2.90;;;;;;;10.93;100.00;100770.38;1512840;94;20965;-86
2022/05/16 00:22:16;;;;;;;10.32;2.85;;;;;;;10.89;100.00;100779.53;1512758;94;21670;-88
2022/05/16 00:24:44;;;;;;;15.90;3.50;;;;;;;10.86;100.00;100777.34;1512636;94;21152;-86
2022/05/16 00:27:12;;;;;;;10.50;3.17;;;;;;;10.84;100.00;100778.94;1494045;94;21207;-87
2022/05/16 00:29:39;;;;;;;10.72;2.95;;;;;;;10.85;100.00;100768.95;1512829;94;21053;-87
2022/05/16 00:32:07;;;;;;;16.82;3.52;;;;;;;10.87;100.00;100773.56;1523837;90;21024;-87
2022/05/16 00:34:34;;;;;;;11.95;3.45;;;;;;;10.84;100.00;100778.12;1583796;90;41109;-86
2022/05/16 00:37:01;;;;;;;11.00;2.72;;;;;;;10.81;100.00;100775.95;1584098;90;21032;-86
2022/05/16 00:39:27;;;;;;;15.15;3.40;;;;;;;10.76;100.00;100772.66;1584342;90;21068;-87
2022/05/16 00:41:53;;;;;;;15.13;3.27;;;;;;;10.78;100.00;100785.36;1584531;90;21074;-86
2022/05/16 00:44:21;;;;;;;10.85;3.00;;;;;;;10.75;100.00;100781.83;1584304;90;21047;-87
2022/05/16 00:46:48;;;;;;;13.00;3.77;;;;;;;10.74;100.00;100779.41;1583975;90;21101;-86
2022/05/16 00:49:28;;;;;;;10.25;3.37;;;;;;;10.74;100.00;100777.52;1585652;89;21608;-85
2022/05/16 00:52:08;;;;;;;11.15;3.75;;;;;;;10.73;100.00;100768.32;1586754;90;21122;-87
2022/05/16 00:54:43;;;;;;;10.13;3.90;;;;;;;10.71;100.00;100764.55;1586881;90;21087;-87
2022/05/16 00:57:13;;;;;;;18.50;3.87;;;;;;;10.68;100.00;100763.72;1573391;90;21054;-87
2022/05/16 01:00:00;;;;;;;13.53;3.45;;;;;;;10.67;100.00;100766.92;1592181;89;22022;-87
2022/05/16 01:05:12;;;;;;;15.70;4.33;;;;;;;10.63;100.00;100757.73;1544607;92;21548;-87
2022/05/16 01:07:43;;;;;;;15.72;4.30;;;;;;;10.59;100.00;100753.94;1544817;92;21064;-86
2022/05/16 01:10:14;;;;;;;18.70;3.87;;;;;;;10.54;100.00;100754.42;1544710;92;21071;-86
2022/05/16 01:12:44;;;;;;;16.10;3.85;;;;;;;10.47;100.00;100768.11;1528602;93;22080;-86
2022/05/16 01:15:15;;;;;;;16.12;3.50;;;;;;;10.41;100.00;100783.41;1528493;93;21061;-87
2022/05/16 01:17:41;;;;;;;11.60;3.33;;;;;;;10.38;100.00;100785.26;1528480;93;21001;-87
2022/05/16 01:20:10;;;;;;;11.93;3.20;;;;;;;10.39;100.00;100786.88;1528515;93;20907;-86
2022/05/16 01:22:47;;;;;;;10.00;3.67;;;;;;;10.38;100.00;100790.65;1528595;93;21246;-88
2022/05/16 01:25:18;;;;;;;11.20;2.80;;;;;;;10.39;100.00;100795.50;1528475;93;21172;-86
2022/05/16 01:27:54;;;;;;;15.80;4.50;;;;;;;10.41;100.00;100796.87;1528562;93;21045;-86
2022/05/16 01:30:28;;;;;;;12.93;3.87;;;;;;;10.41;100.00;100792.83;1530375;93;21118;-85
2022/05/16 01:32:54;;;;;;;17.23;3.83;;;;;;;10.42;100.00;100783.67;1530479;93;21050;-88
2022/05/16 01:35:24;;;;;;;9.58;3.33;;;;;;;10.44;100.00;100789.63;1530404;93;21042;-86
2022/05/16 01:40:36;;;;;;;14.90;4.15;;;;;;;10.43;100.00;100785.29;1530041;93;21697;-87
2022/05/16 01:43:04;;;;;;;14.33;4.00;;;;;;;10.41;100.00;100794.18;1530189;93;21108;-86
2022/05/16 01:45:30;;;;;;;13.80;4.05;;;;;;;10.38;100.00;100804.12;1530426;92;21121;-86
2022/05/16 01:47:56;;;;;;;13.83;3.75;;;;;;;10.36;100.00;100794.13;1530070;93;21067;-86
2022/05/16 01:50:23;;;;;;;22.62;4.45;;;;;;;10.35;100.00;100799.74;1530595;93;21058;-85
2022/05/16 01:52:50;;;;;;;16.30;3.45;;;;;;;10.32;100.00;100793.52;1530375;93;21096;-86
2022/05/16 01:55:17;;;;;;;13.93;3.87;;;;;;;10.32;100.00;100793.52;1530402;93;21681;-85
2022/05/16 01:57:43;;;;;;;16.07;4.25;;;;;;;10.29;100.00;100801.56;1530428;93;21114;-86
2022/05/16 02:00:13;;;;;;;10.10;3.30;;;;;;;10.28;100.00;100803.98;1605427;87;21670;-87
2022/05/16 02:02:42;;;;;;;15.43;4.87;;;;;;;10.26;100.00;100806.08;1646127;87;21095;-87
2022/05/16 02:05:12;;;;;;;13.58;3.60;;;;;;;10.25;100.00;100797.73;1645980;87;21640;-87
2022/05/16 02:07:38;;;;;;;16.23;4.47;;;;;;;10.27;100.00;100809.11;1630412;88;21036;-87
2022/05/16 02:10:06;;;;;;;16.85;4.70;;;;;;;10.29;100.00;100812.34;1623677;87;21466;-87
2022/05/16 02:12:34;;;;;;;17.95;4.35;;;;;;;10.29;100.00;100827.16;1620448;88;21038;-86
2022/05/16 02:15:01;;;;;;;18.25;4.50;;;;;;;10.31;100.00;100822.34;1620263;88;21012;-86
2022/05/16 02:17:27;;;;;;;18.82;5.20;;;;;;;10.31;100.00;100825.58;1620615;88;21594;-85
2022/05/16 02:19:53;;;;;;;15.83;5.03;;;;;;;10.32;100.00;100826.65;1620788;88;21107;-86
2022/05/16 02:25:05;;;;;;;17.92;5.05;;;;;;;10.37;100.00;100833.45;1620454;88;21076;-86
2022/05/16 02:27:32;;;;;;;17.00;4.53;;;;;;;10.40;100.00;100839.68;1664414;85;21199;-86
2022/05/16 02:29:58;;;;;;;15.80;4.50;;;;;;;10.43;100.00;100841.88;1673966;85;21008;-86
2022/05/16 02:32:24;;;;;;;14.93;4.33;;;;;;;10.45;100.00;100842.44;1674361;85;21052;-85
2022/05/16 02:34:51;;;;;;;20.15;5.05;;;;;;;10.49;100.00;100850.83;1674208;85;21124;-86
2022/05/16 02:37:17;;;;;;;15.28;4.05;;;;;;;10.52;100.00;100853.02;1674256;85;21100;-86
2022/05/16 02:39:44;;;;;;;14.20;3.83;;;;;;;10.56;100.00;100853.31;1639567;85;21095;-86
2022/05/16 02:42:14;;;;;;;15.18;3.83;;;;;;;10.60;100.00;100859.84;1673800;85;21075;-86
2022/05/16 02:44:42;;;;;;;15.38;3.95;;;;;;;10.64;100.00;100859.61;1674174;85;21528;-86
2022/05/16 02:47:16;;;;;;;15.75;3.90;;;;;;;10.66;100.00;100860.17;1674178;85;21785;-86
2022/05/16 02:49:43;;;;;;;7.47;3.10;;;;;;;10.71;100.00;100862.09;1674257;85;21087;-87
2022/05/16 02:52:10;;;;;;;12.90;3.95;;;;;;;10.73;100.00;100863.47;1674352;85;21096;-86
2022/05/16 02:54:37;;;;;;;12.07;3.08;;;;;;;10.81;100.00;100863.02;1674125;85;21441;-88
2022/05/16 02:57:05;;;;;;;12.33;2.90;;;;;;;10.94;100.00;100877.16;1674305;85;21019;-86
2022/05/16 02:59:35;;;;;;;10.28;2.70;;;;;;;11.06;100.00;100878.64;1674524;85;20972;-85
2022/05/16 03:02:03;;;;;;;10.75;2.70;;;;;;;11.19;100.00;100878.75;1674239;85;21075;-86
2022/05/16 03:04:31;;;;;;;12.45;3.00;;;;;;;11.34;100.00;100878.05;1691137;84;21136;-87
2022/05/16 03:06:57;;;;;;;12.90;3.00;;;;;;;11.50;100.00;100878.47;1707989;82;21011;-87
2022/05/16 03:09:25;;;;;;;16.10;3.30;;;;;;;11.67;100.00;100884.23;1707824;84;21051;-87
2022/05/16 03:11:52;;;;;;;7.12;2.87;;;;;;;11.80;100.00;100887.84;1707886;84;20988;-86
2022/05/16 03:14:19;;;;;;;13.72;3.10;;;;;;;12.01;100.00;100882.86;1707760;84;21095;-86
2022/05/16 03:16:46;;;;;;;5.47;2.30;;;;;;;12.44;100.00;100889.52;1707928;84;21081;-87
2022/05/16 03:19:12;;;;;;;11.03;3.00;;;;;;;13.18;100.00;100901.33;1686264;84;21409;-87
2022/05/16 03:21:39;;;;;;;7.35;2.50;;;;;;;14.15;100.00;100902.31;1707954;83;20988;-88
2022/05/16 03:24:08;;;;;;;9.18;3.22;;;;;;;15.02;100.00;100898.66;1707971;84;21575;-87
2022/05/16 03:26:35;;;;;;;7.60;2.17;;;;;;;16.25;100.00;100902.45;1707946;84;21062;-86
2022/05/16 03:29:02;;;;;;;7.03;2.58;;;;;;;16.25;100.00;100902.45;1708050;83;21062;-86
2022/05/16 03:31:29;;;;;;;11.00;2.58;;;;;;;16.88;100.00;100908.17;1707908;84;21480;-87
2022/05/16 03:33:55;;;;;;;6.67;2.35;;;;;;;17.24;100.00;100909.83;1707997;84;21070;-88
2022/05/16 03:36:21;;;;;;;9.08;2.17;;;;;;;17.01;100.00;100911.53;1707821;83;21393;-87
2022/05/16 03:41:31;;;;;;;3.77;2.20;;;;;;;17.49;100.00;100915.39;1707694;84;21638;-87
2022/05/16 03:43:57;;;;;;;7.67;2.37;;;;;;;18.53;100.00;100915.11;1707826;84;20988;-87
2022/05/16 03:46:24;;;;;;;6.45;2.40;;;;;;;19.21;100.00;100916.09;1707867;83;20967;-87
2022/05/16 03:48:50;;;;;;;6.45;2.25;;;;;;;19.65;97.32;100916.66;1708692;83;21098;-87
2022/05/16 03:51:16;;;;;;;6.12;2.10;;;;;;;20.17;93.08;100914.14;1685792;83;20967;-86
2022/05/16 03:53:48;;;;;;;7.92;1.98;;;;;;;20.72;87.69;100918.92;1715484;83;20994;-87
2022/05/16 03:56:21;;;;;;;13.25;3.35;;;;;;;21.28;82.35;100918.52;1715392;83;20956;-88
2022/05/16 03:58:48;;;;;;;3.58;1.60;;;;;;;21.94;78.74;100925.09;1687022;83;21090;-89
2022/05/16 04:01:15;;;;;;;7.42;2.02;;;;;;;22.48;71.25;100917.12;1715388;83;21023;-88
2022/05/16 04:03:41;;;;;;;7.87;1.77;;;;;;;22.96;67.16;100919.96;1715671;83;21535;-89
2022/05/16 04:06:08;;;;;;;6.75;2.10;;;;;;;23.23;65.46;100924.09;1715583;83;21143;-89
2022/05/16 04:08:34;;;;;;;8.28;2.15;;;;;;;23.68;62.90;100924.72;1715469;83;21733;-89
2022/05/16 04:11:03;;;;;;;3.62;1.92;;;;;;;24.31;60.32;100920.33;1715596;83;21010;-89
2022/05/16 04:13:29;;;;;;;4.70;1.72;;;;;;;24.57;57.11;100924.70;1715654;83;21188;-88
2022/05/16 04:15:56;;;;;;;8.40;1.60;;;;;;;25.05;55.10;100922.39;1715543;83;21038;-89
2022/05/16 04:18:22;;;;;;;3.05;1.70;;;;;;;25.31;53.35;100927.50;1715454;83;21054;-89
2022/05/16 04:20:48;;;;;;;6.80;2.02;;;;;;;25.71;51.55;100924.43;1715463;83;21093;-89
2022/05/16 04:23:14;;;;;;;5.05;1.70;;;;;;;26.00;49.63;100925.96;1715548;83;20888;-87
2022/05/16 04:25:40;;;;;;;4.58;1.57;;;;;;;26.15;48.89;100926.56;1715603;83;20911;-87
2022/05/16 04:28:09;;;;;;;6.62;1.80;;;;;;;26.71;47.28;100930.45;1715703;83;20924;-88
2022/05/16 04:30:37;;;;;;;4.33;1.57;;;;;;;26.97;46.12;100931.77;1715487;83;21293;-88
2022/05/16 04:33:04;;;;;;;2.08;1.42;;;;;;;27.35;44.62;100938.48;1715863;83;20987;-87
2022/05/16 04:35:30;;;;;;;3.30;1.77;;;;;;;27.46;43.74;100936.73;1715630;83;21051;-86
2022/05/16 04:37:56;;;;;;;1.92;1.60;;;;;;;27.76;42.52;100941.63;1685714;83;20967;-88
2022/05/16 04:40:23;;;;;;;4.53;1.65;;;;;;;27.88;42.19;100932.36;1715547;83;21035;-88
2022/05/16 04:42:49;;;;;;;5.50;1.50;;;;;;;28.17;41.10;100936.41;1715433;83;21159;-89
2022/05/16 04:45:23;;;;;;;3.58;1.60;;;;;;;28.28;40.56;100941.55;1687060;83;21007;-85
2022/05/16 04:47:54;;;;;;;4.55;1.50;;;;;;;28.80;40.32;100943.33;1710682;83;21022;-89
2022/05/16 04:50:25;;;;;;;2.75;1.47;;;;;;;29.06;39.22;100950.81;1703991;83;21055;-87
2022/05/16 04:52:51;;;;;;;4.45;1.70;;;;;;;29.15;38.09;100944.38;1702495;84;21200;-88
2022/05/16 04:55:18;;;;;;;5.00;1.60;;;;;;;29.39;37.84;100945.87;1702309;84;21500;-86
2022/05/16 04:57:44;;;;;;;3.77;1.50;;;;;;;29.64;37.36;100947.53;1702516;84;21098;-87
2022/05/16 05:00:14;;;;;;;4.97;1.75;;;;;;;29.80;36.51;100947.30;1702507;84;21040;-89
2022/05/16 05:02:40;;;;;;;3.85;1.52;;;;;;;30.04;35.39;100954.27;1702532;84;21016;-87
2022/05/16 05:05:08;;;;;;;6.28;1.67;;;;;;;30.14;34.81;100952.15;1702773;84;21559;-91
2022/05/16 05:07:37;;;;;;;5.12;1.75;;;;;;;30.08;34.23;100952.30;1702582;84;21239;-89
2022/05/16 05:18:04;;;;;;;8.33;1.27;;;;;;;31.20;32.70;100967.14;1593391;90;20995;-90
2022/05/16 05:20:32;;;;;;;7.58;1.60;;;;;;;31.40;32.37;100975.40;1593448;90;21109;-90
2022/05/16 05:23:00;;;;;;;3.10;1.30;;;;;;;31.76;32.23;100970.50;1593352;90;21043;-87
2022/05/16 05:25:26;;;;;;;4.10;1.30;;;;;;;31.89;31.59;100969.73;1593711;90;20996;-86
2022/05/16 05:27:53;;;;;;;4.28;2.00;;;;;;;31.94;30.72;100979.70;1606682;89;21151;-85
2022/05/16 05:30:24;;;;;;;1.70;1.17;;;;;;;31.69;29.83;100979.66;1606591;89;21100;-89
2022/05/16 05:32:50;;;;;;;5.87;1.47;;;;;;;31.16;29.72;100978.88;1606735;89;22043;-87
2022/05/16 05:35:17;;;;;;;3.37;1.40;;;;;;;31.16;30.45;100986.63;1606720;89;21089;-87
2022/05/16 05:37:43;;;;;;;2.33;1.35;;;;;;;31.37;30.03;100976.78;1606697;89;21054;-85
2022/05/16 05:40:12;;;;;;;6.05;1.45;;;;;;;31.54;29.12;100976.05;1606882;89;21034;-85
2022/05/16 05:42:38;;;;;;;12.47;1.20;;;;;;;31.84;29.35;100977.08;1606996;89;21302;-88
2022/05/16 05:45:06;;;;;;;2.27;1.30;;;;;;;32.33;29.04;100971.95;1606803;89;21868;-86
2022/05/16 05:47:33;;;;;;;1.32;1.20;;;;;;;32.99;29.00;100970.05;1611627;87;21285;-87
2022/05/16 05:50:01;;;;;;;1.37;1.27;;;;;;;33.07;27.82;100970.83;1619488;88;21010;-87
2022/05/16 05:52:28;;;;;;;1.47;1.37;;;;;;;33.25;27.57;100966.74;1619852;88;20993;-86
2022/05/16 05:54:56;;;;;;;1.98;1.10;;;;;;;33.61;28.04;100967.96;1612421;89;21050;-88
2022/05/16 05:57:25;;;;;;;1.85;1.25;;;;;;;34.06;27.29;100968.66;1612595;89;21218;-88
2022/05/16 05:59:55;;;;;;;2.12;1.40;;;;;;;34.14;27.09;100971.59;1612349;89;21413;-88
2022/05/16 06:02:21;;;;;;;3.30;1.75;;;;;;;34.21;26.48;100974.34;1612655;89;21140;-87
2022/05/16 06:04:48;;;;;;;4.35;1.47;;;;;;;34.08;25.86;100971.84;1612718;89;21102;-86
2022/05/16 06:07:15;;;;;;;12.05;1.40;;;;;;;33.91;25.66;100980.53;1612790;89;21058;-86
2022/05/16 06:09:41;;;;;;;8.33;1.65;;;;;;;33.79;24.99;100980.42;1612955;89;21063;-88
2022/05/16 06:12:09;;;;;;;1.92;1.32;;;;;;;33.23;25.48;100981.71;1612781;89;21600;-89
2022/05/16 06:14:36;;;;;;;3.58;1.30;;;;;;;33.24;25.34;100977.73;1650560;83;21003;-87
2022/05/16 06:17:03;;;;;;;7.05;1.15;;;;;;;33.61;25.87;100986.73;1721187;83;20975;-88
2022/05/16 06:19:29;;;;;;;3.15;1.27;;;;;;;34.05;25.42;100972.67;1721118;83;21042;-87
2022/05/16 06:21:55;;;;;;;3.22;1.52;;;;;;;34.28;24.90;100973.48;1721092;83;21060;-86
2022/05/16 06:27:08;;;;;;;2.42;1.40;;;;;;;34.29;25.01;100982.84;1720611;83;20991;-89
2022/05/16 06:29:34;;;;;;;1.47;1.10;;;;;;;35.06;24.24;100966.88;1721082;83;20971;-88
2022/05/16 06:32:00;;;;;;;4.10;1.42;;;;;;;35.06;24.24;100966.88;1720888;83;21003;-88
2022/05/16 06:34:26;;;;;;;4.53;1.40;;;;;;;35.12;23.65;100975.00;1721014;83;21492;-86
2022/05/16 06:36:52;;;;;;;1.65;1.40;;;;;;;34.77;23.40;100952.59;1720986;83;21471;-85
2022/05/16 06:39:18;;;;;;;2.30;1.35;;;;;;;34.77;23.40;100952.59;1721152;83;21038;-89
2022/05/16 06:41:45;;;;;;;2.90;1.55;;;;;;;35.42;24.29;100977.81;1720989;83;20939;-88
2022/05/16 06:44:14;;;;;;;2.12;1.42;;;;;;;35.95;23.66;100983.86;1720951;83;21028;-89
2022/05/16 06:46:39;;;;;;;4.80;1.62;;;;;;;36.29;23.59;100987.91;1720735;82;20995;-92
2022/05/16 06:49:05;;;;;;;2.47;1.30;;;;;;;36.39;22.63;100977.73;1694237;83;21014;-86
2022/05/16 06:51:31;;;;;;;3.75;1.70;;;;;;;36.15;22.70;100980.55;1715922;83;20908;-87
2022/05/16 06:53:57;;;;;;;2.20;1.40;;;;;;;36.17;22.59;100987.13;1664192;83;21074;-88
2022/05/16 06:56:23;;;;;;;3.20;1.70;;;;;;;36.37;22.31;100981.56;1715678;83;21408;-86
2022/05/16 06:58:49;;;;;;;2.17;0.90;;;;;;;36.14;22.03;100985.96;1715695;83;21198;-87
2022/05/16 07:01:16;;;;;;;8.55;2.65;;;;;;;35.63;21.74;100983.75;1715772;83;21147;-89
2022/05/16 07:03:43;;;;;;;2.25;1.50;;;;;;;35.23;22.50;100982.67;1715689;83;21067;-88
2022/05/16 07:06:10;;;;;;;3.50;1.57;;;;;;;35.38;22.70;100984.06;1715402;83;21056;-87
2022/05/16 07:08:37;;;;;;;1.50;1.37;;;;;;;35.67;22.54;100990.70;1715367;83;21096;-90
2022/05/16 07:11:03;;;;;;;1.60;1.30;;;;;;;36.07;22.46;100989.52;1715578;83;21062;-86
2022/05/16 07:13:29;;;;;;;7.53;1.50;;;;;;;36.13;21.74;100990.61;1710912;83;21400;-89
2022/05/16 07:15:56;;;;;;;1.60;1.50;;;;;;;36.36;22.54;100987.80;1715777;83;21416;-87
2022/05/16 07:18:24;;;;;;;2.83;1.60;;;;;;;36.90;21.78;100993.03;1715612;83;21138;-86
2022/05/16 07:20:51;;;;;;;2.90;1.40;;;;;;;36.60;21.63;100998.41;1715762;83;21593;-88
2022/05/16 07:23:17;;;;;;;2.72;1.10;;;;;;;36.73;21.03;101001.38;1715634;82;21449;-87
2022/05/16 07:28:28;;;;;;;3.62;1.47;;;;;;;36.56;21.08;101002.50;1715437;83;21039;-89
2022/05/16 07:30:54;;;;;;;5.05;1.62;;;;;;;36.75;21.46;101000.95;1715861;83;20840;-86
2022/05/16 07:33:20;;;;;;;1.55;1.37;;;;;;;36.95;20.59;100997.55;1715704;83;20900;-86
2022/05/16 07:35:50;;;;;;;1.95;1.45;;;;;;;36.71;20.61;100998.81;1715555;83;21085;-90
2022/05/16 07:38:25;;;;;;;1.87;1.67;;;;;;;37.07;20.83;100996.75;1715300;83;21539;-88
2022/05/16 07:40:52;;;;;;;4.53;1.60;;;;;;;37.43;20.55;100993.95;1715313;83;21151;-88
2022/05/16 07:43:19;;;;;;;1.57;1.20;;;;;;;37.68;19.72;100998.42;1715753;83;21034;-87
2022/05/16 07:45:46;;;;;;;1.90;1.47;;;;;;;37.25;20.18;101000.75;1715831;83;21089;-86
2022/05/16 07:48:13;;;;;;;4.42;1.10;;;;;;;37.86;20.14;100993.77;1715396;83;21540;-87
2022/05/16 07:50:41;;;;;;;5.85;1.40;;;;;;;38.03;19.39;101002.23;1711826;83;21008;-86
2022/05/16 07:53:11;;;;;;;1.32;1.05;;;;;;;37.37;19.68;101006.94;1708015;84;20987;-90
2022/05/16 07:55:39;;;;;;;1.42;1.20;;;;;;;36.43;19.46;101002.93;1707663;84;20956;-90
2022/05/16 07:58:06;;;;;;;3.67;1.00;;;;;;;36.28;20.13;101003.80;1708033;83;20936;-86
2022/05/16 08:00:32;;;;;;;1.20;1.10;;;;;;;35.84;19.86;101008.48;1708020;83;21131;-86
2022/05/16 08:02:58;;;;;;;2.72;0.93;;;;;;;35.83;20.21;101002.09;1707680;84;20996;-88
2022/05/16 08:05:26;;;;;;;3.65;1.20;;;;;;;35.78;20.20;101005.97;1704710;84;20977;-88
2022/05/16 08:10:39;;;;;;;6.47;0.90;;;;;;;35.75;21.00;101004.02;1707761;84;20961;-88
2022/05/16 08:13:09;;;;;;;3.37;1.02;;;;;;;35.93;20.09;101008.73;1707793;84;22173;-85
2022/05/16 08:15:38;;;;;;;2.75;0.70;;;;;;;35.36;19.93;101001.93;1707757;84;21519;-88
2022/05/16 08:18:08;;;;;;;2.10;0.90;;;;;;;34.11;20.32;101015.17;1707832;84;21596;-87
2022/05/16 08:20:39;;;;;;;1.72;1.00;;;;;;;32.95;21.19;101020.31;1707787;84;20988;-88
2022/05/16 08:23:06;;;;;;;1.35;0.93;;;;;;;33.42;21.66;101006.98;1707636;84;21031;-85
2022/05/16 08:25:32;;;;;;;1.72;0.82;;;;;;;34.17;21.22;100997.34;1708053;82;20984;-88
2022/05/16 08:27:58;;;;;;;3.02;0.90;;;;;;;34.83;20.47;101000.55;1707792;84;21511;-88
2022/05/16 08:30:25;;;;;;;3.67;0.98;;;;;;;34.84;20.83;101009.74;1704175;84;21007;-88
2022/05/16 08:32:52;;;;;;;3.20;1.00;;;;;;;35.11;20.45;101007.84;1707987;84;21038;-87
2022/05/16 08:35:20;;;;;;;2.67;0.80;;;;;;;35.14;20.23;101009.80;1699545;84;21089;-91
2022/05/16 08:40:57;;;;;;;1.90;0.65;;;;;;;35.78;19.87;100997.56;1699583;84;21549;-93
2022/05/16 08:43:44;;;;;;;2.47;1.22;;;;;;;35.58;20.28;101001.66;1700078;84;21522;-92
2022/05/16 08:46:39;;;;;;;0.90;0.90;;;;;;;36.18;19.94;101003.34;1700232;84;21041;-93
2022/05/16 08:49:19;;;;;;;1.92;1.07;;;;;;;36.16;19.12;100989.14;1699170;84;21097;-92
2022/05/16 08:51:53;;;;;;;1.65;0.88;;;;;;;36.65;19.16;100994.33;1642942;86;21144;-89
2022/05/16 08:54:44;;;;;;;1.90;0.95;;;;;;;36.62;19.41;100996.56;1642645;86;21589;-89
2022/05/16 08:57:17;;;;;;;4.15;0.78;;;;;;;36.07;19.09;101001.53;1642685;86;21009;-94
2022/05/16 08:59:48;;;;;;;3.33;0.78;;;;;;;35.84;19.46;100998.05;1619502;88;21032;-90
2022/05/16 09:02:19;;;;;;;0.93;0.72;;;;;;;35.97;19.23;100994.03;1619286;88;21070;-92
2022/05/16 09:05:20;;;;;;;3.20;0.80;;;;;;;35.87;19.41;100995.80;1566935;91;22183;-93
2022/05/16 09:07:54;;;;;;;1.90;0.70;;;;;;;36.21;19.43;100989.86;1566536;91;21059;-90
2022/05/16 09:10:37;;;;;;;1.30;0.65;;;;;;;35.36;19.10;100996.94;1566733;91;21110;-88
2022/05/16 09:13:09;;;;;;;2.05;0.57;;;;;;;35.13;19.57;100991.41;1494524;96;21050;-90
2022/05/16 09:15:59;;;;;;;1.75;0.60;;;;;;;35.48;20.01;100994.34;1494694;96;21074;-87
2022/05/16 09:18:45;;;;;;;3.70;0.60;;;;;;;34.68;19.13;100992.91;1497141;94;22347;-86
2022/05/16 09:21:19;;;;;;;1.45;0.70;;;;;;;32.92;20.08;101003.57;1477084;95;21562;-90
2022/05/16 09:24:08;;;;;;;1.00;0.85;;;;;;;33.25;20.73;100989.70;1473257;97;21117;-91
2022/05/16 09:27:11;;;;;;;1.80;0.60;;;;;;;33.48;19.79;100985.00;1475416;97;21133;-89
2022/05/16 09:29:45;;;;;;;2.75;0.60;;;;;;;33.57;20.25;100994.36;1441106;98;21220;-87
2022/05/16 09:32:16;;;;;;;1.02;0.53;;;;;;;33.48;20.24;100988.59;1440690;98;21103;-90
2022/05/16 09:34:42;;;;;;;1.03;0.50;;;;;;;33.33;20.03;100988.47;1438479;98;21154;-90
2022/05/16 09:37:09;;;;;;;1.55;0.70;;;;;;;32.84;21.00;100992.22;1441136;98;21088;-92
2022/05/16 09:39:36;;;;;;;8.83;0.62;;;;;;;33.10;20.88;100997.34;1440783;99;21159;-87
2022/05/16 09:42:25;;;;;;;1.95;0.40;;;;;;;33.02;20.41;100992.98;1440948;99;21109;-92
2022/05/16 09:45:03;;;;;;;1.00;0.50;;;;;;;32.71;20.87;100992.66;1441105;98;21851;-94
2022/05/16 09:47:35;;;;;;;1.95;0.50;;;;;;;32.58;20.90;100987.28;1428508;97;21108;-89
2022/05/16 09:50:20;;;;;;;0.93;0.40;;;;;;;32.11;20.13;100981.70;1484826;94;21156;-88
2022/05/16 09:53:10;;;;;;;1.20;0.40;;;;;;;31.45;21.40;100976.41;1494206;96;21147;-91
2022/05/16 09:55:57;;;;;;;0.93;0.53;;;;;;;31.26;21.25;100989.24;1494142;96;21731;-93
2022/05/16 09:58:37;;;;;;;0.40;0.33;;;;;;;30.62;21.49;100986.91;1471713;97;21259;-91
2022/05/16 10:01:07;;;;;;;3.40;0.40;;;;;;;30.54;21.69;100972.75;1462121;94;21134;-91
2022/05/16 10:03:49;;;;;;;1.60;0.60;;;;;;;30.40;22.01;100980.98;1507687;95;21528;-89
2022/05/16 10:06:36;;;;;;;0.55;0.42;;;;;;;30.27;21.79;100965.20;1521760;92;21560;-87
2022/05/16 10:09:10;;;;;;;4.08;0.90;;;;;;;30.18;22.31;100972.45;1518898;94;21602;-89
2022/05/16 10:11:38;;;;;;;2.02;0.60;;;;;;;29.99;22.06;100977.64;1519082;94;21100;-93
2022/05/16 10:14:06;;;;;;;2.90;0.47;;;;;;;29.69;22.14;100972.80;1500116;94;21110;-88
2022/05/16 10:16:35;;;;;;;4.42;0.50;;;;;;;29.54;22.36;100975.98;1519184;93;21123;-89
2022/05/16 10:19:12;;;;;;;1.75;0.60;;;;;;;29.03;22.03;100973.77;1500320;94;21636;-89
2022/05/16 10:21:52;;;;;;;2.75;0.30;;;;;;;28.15;22.63;100971.44;1538196;93;21039;-91
2022/05/16 10:24:21;;;;;;;3.50;0.50;;;;;;;27.76;23.58;100981.79;1538244;93;21054;-90
2022/05/16 10:26:52;;;;;;;8.90;0.62;;;;;;;28.02;23.49;100973.58;1538216;92;21050;-90
2022/05/16 10:29:29;;;;;;;5.62;0.62;;;;;;;28.24;23.34;100958.72;1538293;93;21095;-87
2022/05/16 10:35:04;;;;;;;2.17;0.30;;;;;;;28.76;23.07;100966.25;1538388;93;21132;-88
2022/05/16 10:37:33;;;;;;;2.98;0.30;;;;;;;28.92;22.88;100957.76;1538554;93;22946;-89
2022/05/16 10:40:09;;;;;;;0.72;0.40;;;;;;;28.84;23.09;100958.83;1538525;92;21050;-91
2022/05/16 10:43:32;;;;;;;1.57;0.60;;;;;;;28.89;23.74;100959.90;1538321;93;21611;-92
2022/05/16 10:46:18;;;;;;;1.27;0.40;;;;;;;28.92;23.33;100955.58;1601213;88;21055;-92
2022/05/16 10:48:51;;;;;;;0.68;0.30;;;;;;;28.68;23.16;100953.47;1554317;91;21109;-87
2022/05/16 10:51:48;;;;;;;2.75;0.53;;;;;;;28.41;23.72;100950.45;1526150;93;21355;-89
2022/05/16 10:54:25;;;;;;;0.70;0.23;;;;;;;28.52;23.54;100956.39;1514987;93;21211;-90
2022/05/16 10:57:21;;;;;;;6.85;0.80;;;;;;;28.67;23.64;100961.56;1465130;98;21236;-90
2022/05/16 11:00:09;;;;;;;1.80;0.50;;;;;;;28.97;23.92;100951.89;1483631;96;21553;-90
2022/05/16 11:03:11;;;;;;;1.25;0.40;;;;;;;29.13;24.02;100945.36;1486392;92;21133;-88
2022/05/16 11:05:45;;;;;;;1.10;0.50;;;;;;;29.39;24.48;100953.59;1531337;92;21107;-92
2022/05/16 11:08:45;;;;;;;1.37;0.50;;;;;;;29.28;24.14;100950.49;1539219;93;21567;-90
2022/05/16 11:11:28;;;;;;;0.60;0.30;;;;;;;28.91;24.23;100949.80;1514818;94;21070;-87
2022/05/16 11:14:02;;;;;;;0.30;0.30;;;;;;;28.82;24.81;100945.13;1515225;94;21050;-91
2022/05/16 11:16:35;;;;;;;1.02;0.30;;;;;;;28.53;24.67;100944.71;1516774;94;21126;-91
2022/05/16 11:19:25;;;;;;;1.02;0.57;;;;;;;28.04;24.98;100951.06;1514836;94;21113;-90
2022/05/16 11:22:16;;;;;;;2.22;0.53;;;;;;;27.60;25.05;100957.77;1528239;91;21129;-91
2022/05/16 11:25:13;;;;;;;3.02;0.50;;;;;;;27.43;25.91;100944.39;1547209;92;21630;-91
2022/05/16 11:28:09;;;;;;;1.65;0.60;;;;;;;27.28;25.61;100958.53;1537514;92;21075;-88
2022/05/16 11:31:05;;;;;;;1.55;0.53;;;;;;;26.60;25.69;100948.76;1547609;92;20986;-89
2022/05/16 11:33:48;;;;;;;3.77;0.42;;;;;;;25.77;25.91;100953.38;1550600;92;21593;-88
2022/05/16 11:36:46;;;;;;;2.97;0.40;;;;;;;25.39;26.39;100956.09;1540324;92;21092;-87
2022/05/16 11:39:56;;;;;;;1.52;0.40;;;;;;;25.36;27.25;100956.80;1558852;92;21177;-86
2022/05/16 11:42:36;;;;;;;4.25;0.50;;;;;;;25.62;27.14;100942.53;1557564;92;21071;-88
2022/05/16 11:45:11;;;;;;;3.35;0.60;;;;;;;25.81;26.90;100947.36;1553331;92;21635;-88
2022/05/16 11:47:44;;;;;;;2.65;0.40;;;;;;;25.53;26.58;100941.87;1519734;94;21264;-88
2022/05/16 11:50:25;;;;;;;0.60;0.30;;;;;;;25.90;27.35;100934.80;1522449;94;22610;-88
2022/05/16 11:53:17;;;;;;;3.60;0.50;;;;;;;26.25;26.70;100922.44;1525711;93;21042;-87
2022/05/16 12:01:38;;;;;;;1.25;0.37;;;;;;;26.06;25.93;100924.56;1503148;94;21651;-87
2022/05/16 12:07:02;;;;;;;2.60;0.40;;;;;;;25.35;27.41;100923.45;1487931;95;21178;-87
2022/05/16 12:09:32;;;;;;;1.27;0.40;;;;;;;25.21;27.51;100929.94;1499502;95;21669;-89
2022/05/16 12:12:10;;;;;;;0.78;0.40;;;;;;;25.03;27.63;100923.34;1498798;95;21143;-88
2022/05/16 12:14:40;;;;;;;0.70;0.45;;;;;;;24.86;27.53;100918.10;1499910;95;22070;-88
2022/05/16 12:17:21;;;;;;;4.58;0.57;;;;;;;24.81;28.02;100921.89;1501967;95;21028;-87
2022/05/16 12:19:51;;;;;;;2.55;0.45;;;;;;;24.75;28.27;100922.48;1501857;95;21113;-89